createdAt,value
2023-04-26T00:00:21.853Z,12.90
2023-04-26T00:01:21.842Z,13.10
2023-04-26T00:02:21.944Z,13.20
2023-04-26T00:03:21.994Z,13.20
2023-04-26T00:04:21.953Z,13.50
2023-04-26T00:05:21.959Z,13.40
2023-04-26T00:06:21.836Z,13.40
2023-04-26T00:07:21.822Z,13.50
2023-04-26T00:08:21.855Z,13.40
2023-04-26T00:09:21.816Z,13.60
2023-04-26T00:10:21.824Z,13.80
2023-04-26T00:11:21.816Z,13.30
2023-04-26T00:12:21.815Z,13.20
2023-04-26T00:13:21.812Z,13.10
2023-04-26T00:14:21.827Z,13.40
2023-04-26T00:15:21.801Z,13.50
2023-04-26T00:16:21.860Z,13.40
2023-04-26T00:17:21.800Z,13.70
2023-04-26T00:18:21.820Z,13.70
2023-04-26T00:19:21.788Z,13.70
2023-04-26T00:20:21.795Z,13.40
2023-04-26T00:21:21.781Z,13.10
2023-04-26T00:22:21.784Z,13.30
2023-04-26T00:23:21.782Z,13.20
2023-04-26T00:24:21.777Z,13.20
2023-04-26T00:25:21.773Z,13.50
2023-04-26T00:26:21.773Z,13.40
2023-04-26T00:27:21.765Z,13.20
2023-04-26T00:28:21.766Z,13.20
2023-04-26T00:29:21.766Z,13.40
2023-04-26T00:30:21.760Z,12.90
2023-04-26T00:31:21.809Z,13.00
2023-04-26T00:32:21.782Z,13.00
2023-04-26T00:33:21.748Z,12.90
2023-04-26T00:34:21.770Z,12.90
2023-04-26T00:35:21.745Z,13.30
2023-04-26T00:36:21.748Z,13.20
2023-04-26T00:37:21.739Z,13.10
2023-04-26T00:38:21.756Z,12.90
2023-04-26T00:39:21.740Z,13.30
2023-04-26T00:40:21.728Z,13.20
2023-04-26T00:41:21.725Z,13.00
2023-04-26T00:42:21.733Z,13.10
2023-04-26T00:43:21.717Z,13.00
2023-04-26T00:44:21.719Z,13.40
2023-04-26T00:45:21.715Z,13.20
2023-04-26T00:46:21.899Z,13.70
2023-04-26T00:47:21.703Z,13.30
2023-04-26T00:48:21.709Z,13.70
2023-04-26T00:49:21.706Z,13.40
2023-04-26T00:50:21.812Z,13.80
2023-04-26T00:51:21.700Z,13.40
2023-04-26T00:52:21.693Z,13.50
2023-04-26T00:53:21.691Z,13.40
2023-04-26T00:54:21.708Z,13.40
2023-04-26T00:55:21.721Z,13.40
2023-04-26T00:56:21.684Z,13.30
2023-04-26T00:57:21.678Z,13.10
2023-04-26T00:58:21.694Z,13.20
2023-04-26T00:59:21.676Z,13.40
2023-04-26T01:00:21.676Z,13.40
2023-04-26T01:01:21.780Z,13.30
2023-04-26T01:02:21.850Z,13.30
2023-04-26T01:03:21.845Z,13.50
2023-04-26T01:04:21.932Z,13.20
2023-04-26T01:05:21.654Z,13.10
2023-04-26T01:06:21.790Z,13.00
2023-04-26T01:07:21.643Z,12.90
2023-04-26T01:08:21.649Z,13.50
2023-04-26T01:09:21.638Z,12.90
2023-04-26T01:10:21.646Z,13.20
2023-04-26T01:11:21.633Z,12.80
2023-04-26T01:12:21.634Z,12.90
2023-04-26T01:13:21.622Z,12.50
2023-04-26T01:14:21.627Z,13.10
2023-04-26T01:15:21.617Z,13.30
2023-04-26T01:16:21.751Z,12.90
2023-04-26T01:17:21.667Z,13.10
2023-04-26T01:18:21.620Z,13.20
2023-04-26T01:19:21.605Z,12.70
2023-04-26T01:20:21.606Z,12.90
2023-04-26T01:21:21.669Z,12.70
2023-04-26T01:22:21.622Z,13.10
2023-04-26T01:23:21.597Z,13.30
2023-04-26T01:24:21.588Z,13.20
2023-04-26T01:25:21.596Z,13.20
2023-04-26T01:26:21.586Z,13.00
2023-04-26T01:27:21.599Z,12.80
2023-04-26T01:28:21.581Z,13.00
2023-04-26T01:29:21.598Z,13.10
2023-04-26T01:30:21.575Z,12.70
2023-04-26T01:31:21.613Z,12.50
2023-04-26T01:32:21.566Z,13.00
2023-04-26T01:33:21.561Z,12.50
2023-04-26T01:34:21.559Z,12.60
2023-04-26T01:35:21.559Z,12.80
2023-04-26T01:36:21.562Z,12.80
2023-04-26T01:37:21.549Z,12.80
2023-04-26T01:38:21.566Z,12.80
2023-04-26T01:39:21.541Z,12.70
2023-04-26T01:40:21.537Z,12.50
2023-04-26T01:41:21.536Z,13.10
2023-04-26T01:42:21.536Z,12.60
2023-04-26T01:43:21.542Z,13.00
2023-04-26T01:44:21.531Z,12.70
2023-04-26T01:45:21.530Z,13.00
2023-04-26T01:46:21.594Z,12.90
2023-04-26T01:47:21.521Z,12.90
2023-04-26T01:48:21.510Z,13.00
2023-04-26T01:49:21.510Z,12.70
2023-04-26T01:50:21.519Z,12.80
2023-04-26T01:51:21.510Z,12.90
2023-04-26T01:52:21.509Z,13.40
2023-04-26T01:53:21.509Z,12.80
2023-04-26T01:54:21.514Z,13.10
2023-04-26T01:55:21.490Z,13.30
2023-04-26T01:56:21.484Z,12.80
2023-04-26T01:57:21.484Z,12.90
2023-04-26T01:58:21.477Z,13.30
2023-04-26T01:59:21.479Z,13.60
2023-04-26T02:00:21.487Z,13.10
2023-04-26T02:01:21.486Z,13.10
2023-04-26T02:02:21.476Z,13.20
2023-04-26T02:03:21.625Z,13.20
2023-04-26T02:04:21.463Z,12.80
2023-04-26T02:05:21.565Z,12.90
2023-04-26T02:06:21.541Z,13.20
2023-04-26T02:07:21.450Z,13.00
2023-04-26T02:08:21.445Z,13.50
2023-04-26T02:09:21.444Z,12.60
2023-04-26T02:10:21.484Z,13.50
2023-04-26T02:11:21.503Z,13.30
2023-04-26T02:12:21.433Z,13.00
2023-04-26T02:13:21.438Z,13.10
2023-04-26T02:14:21.426Z,13.20
2023-04-26T02:15:21.433Z,13.30
2023-04-26T02:16:21.521Z,13.30
2023-04-26T02:17:21.427Z,13.40
2023-04-26T02:18:21.419Z,13.10
2023-04-26T02:19:21.431Z,13.50
2023-04-26T02:20:21.409Z,13.00
2023-04-26T02:21:21.408Z,13.20
2023-04-26T02:22:21.397Z,13.00
2023-04-26T02:23:21.405Z,13.20
2023-04-26T02:24:21.400Z,12.80
2023-04-26T02:25:21.411Z,12.70
2023-04-26T02:26:21.417Z,12.70
2023-04-26T02:27:21.394Z,12.60
2023-04-26T02:28:21.384Z,12.60
2023-04-26T02:29:29.425Z,12.80
2023-04-26T02:30:21.375Z,12.50
2023-04-26T02:31:23.102Z,12.70
2023-04-26T02:32:21.403Z,12.60
2023-04-26T02:33:21.375Z,12.40
2023-04-26T02:34:21.361Z,12.50
2023-04-26T02:35:21.358Z,13.00
2023-04-26T02:36:21.357Z,12.60
2023-04-26T02:37:21.353Z,12.60
2023-04-26T02:38:21.348Z,12.70
2023-04-26T02:39:21.350Z,12.90
2023-04-26T02:40:21.347Z,12.40
2023-04-26T02:41:21.344Z,15.40
2023-04-26T02:42:21.363Z,12.60
2023-04-26T02:43:21.340Z,12.60
2023-04-26T02:44:21.331Z,13.60
2023-04-26T02:45:21.324Z,12.50
2023-04-26T02:46:21.330Z,12.50
2023-04-26T02:47:21.331Z,12.00
2023-04-26T02:48:21.314Z,11.80
2023-04-26T02:49:21.319Z,12.20
2023-04-26T02:50:21.309Z,12.40
2023-04-26T02:51:21.661Z,12.40
2023-04-26T02:52:21.301Z,12.20
2023-04-26T02:53:21.302Z,12.70
2023-04-26T02:54:21.290Z,12.80
2023-04-26T02:55:21.290Z,12.60
2023-04-26T02:56:21.284Z,12.60
2023-04-26T02:57:21.281Z,12.40
2023-04-26T02:58:21.304Z,12.00
2023-04-26T02:59:21.277Z,12.20
2023-04-26T03:00:21.272Z,12.60
2023-04-26T03:01:21.311Z,12.40
2023-04-26T03:02:21.353Z,12.20
2023-04-26T03:03:21.418Z,12.20
2023-04-26T03:04:21.273Z,12.00
2023-04-26T03:05:21.253Z,12.20
2023-04-26T03:06:21.255Z,12.50
2023-04-26T03:07:21.258Z,12.40
2023-04-26T03:08:21.243Z,12.20
2023-04-26T03:09:21.237Z,11.60
2023-04-26T03:10:21.231Z,11.50
2023-04-26T03:11:21.232Z,11.90
2023-04-26T03:12:21.235Z,11.30
2023-04-26T03:13:21.222Z,11.70
2023-04-26T03:14:21.245Z,11.40
2023-04-26T03:15:21.215Z,11.50
2023-04-26T03:16:21.244Z,11.80
2023-04-26T03:17:21.212Z,11.90
2023-04-26T03:18:21.208Z,12.10
2023-04-26T03:19:21.210Z,11.60
2023-04-26T03:20:21.198Z,11.70
2023-04-26T03:21:21.199Z,11.90
2023-04-26T03:22:21.216Z,12.00
2023-04-26T03:23:21.194Z,11.60
2023-04-26T03:24:21.204Z,11.80
2023-04-26T03:25:21.189Z,11.70
2023-04-26T03:26:21.182Z,11.80
2023-04-26T03:27:21.181Z,12.00
2023-04-26T03:28:21.173Z,12.20
2023-04-26T03:29:21.176Z,11.90
2023-04-26T03:30:21.193Z,12.30
2023-04-26T03:31:21.208Z,11.80
2023-04-26T03:32:21.159Z,12.00
2023-04-26T03:33:21.163Z,12.10
2023-04-26T03:34:21.152Z,12.40
2023-04-26T03:35:21.152Z,11.70
2023-04-26T03:36:21.143Z,12.10
2023-04-26T03:37:21.150Z,11.40
2023-04-26T03:38:21.138Z,11.30
2023-04-26T03:39:21.152Z,11.70
2023-04-26T03:40:21.132Z,11.80
2023-04-26T03:41:21.141Z,12.00
2023-04-26T03:42:21.127Z,11.80
2023-04-26T03:43:21.129Z,11.80
2023-04-26T03:44:21.130Z,11.70
2023-04-26T03:45:21.123Z,12.00
2023-04-26T03:46:21.194Z,12.60
2023-04-26T03:47:21.112Z,11.70
2023-04-26T03:48:21.106Z,11.40
2023-04-26T03:49:21.129Z,12.30
2023-04-26T03:50:21.103Z,11.50
2023-04-26T03:51:21.092Z,11.90
2023-04-26T03:52:21.100Z,12.40
2023-04-26T03:53:21.092Z,11.80
2023-04-26T03:54:21.084Z,12.30
2023-04-26T03:55:21.087Z,11.70
2023-04-26T03:56:21.075Z,12.40
2023-04-26T03:57:21.073Z,11.80
2023-04-26T03:58:21.077Z,12.30
2023-04-26T03:59:21.068Z,12.30
2023-04-26T04:00:21.065Z,12.40
2023-04-26T04:01:21.073Z,12.70
2023-04-26T04:02:21.110Z,12.20
2023-04-26T04:03:21.281Z,12.10
2023-04-26T04:04:21.255Z,11.80
2023-04-26T04:05:21.158Z,12.30
2023-04-26T04:06:21.035Z,11.90
2023-04-26T04:07:21.037Z,11.60
2023-04-26T04:08:21.052Z,11.60
2023-04-26T04:09:21.037Z,11.20
2023-04-26T04:10:21.037Z,11.40
2023-04-26T04:11:21.026Z,11.90
2023-04-26T04:12:21.014Z,11.90
2023-04-26T04:13:21.014Z,12.00
2023-04-26T04:14:21.029Z,12.10
2023-04-26T04:15:21.021Z,11.80
2023-04-26T04:16:21.170Z,11.80
2023-04-26T04:17:20.999Z,11.90
2023-04-26T04:18:21.010Z,11.80
2023-04-26T04:19:20.986Z,11.70
2023-04-26T04:20:20.985Z,11.50
2023-04-26T04:21:21.007Z,12.10
2023-04-26T04:22:20.980Z,12.10
2023-04-26T04:23:20.978Z,11.70
2023-04-26T04:24:20.982Z,11.90
2023-04-26T04:25:20.980Z,12.10
2023-04-26T04:26:20.972Z,12.10
2023-04-26T04:27:20.969Z,11.70
2023-04-26T04:28:20.959Z,11.90
2023-04-26T04:29:20.965Z,12.10
2023-04-26T04:30:20.952Z,11.80
2023-04-26T04:31:20.960Z,11.90
2023-04-26T04:32:20.952Z,11.90
2023-04-26T04:33:20.945Z,12.10
2023-04-26T04:34:20.972Z,12.30
2023-04-26T04:35:20.933Z,11.80
2023-04-26T04:36:20.927Z,11.90
2023-04-26T04:37:20.926Z,11.60
2023-04-26T04:38:20.917Z,12.20
2023-04-26T04:39:20.922Z,12.40
2023-04-26T04:40:20.919Z,12.70
2023-04-26T04:41:20.915Z,12.20
2023-04-26T04:42:20.906Z,12.30
2023-04-26T04:43:20.905Z,12.50
2023-04-26T04:44:20.898Z,12.70
2023-04-26T04:45:20.898Z,12.60
2023-04-26T04:46:20.910Z,12.00
2023-04-26T04:47:20.890Z,12.10
2023-04-26T04:48:20.885Z,12.00
2023-04-26T04:49:20.902Z,12.50
2023-04-26T04:50:21.078Z,12.50
2023-04-26T04:51:20.886Z,12.50
2023-04-26T04:52:20.871Z,12.30
2023-04-26T04:53:20.876Z,12.50
2023-04-26T04:54:20.864Z,12.60
2023-04-26T04:55:20.868Z,12.40
2023-04-26T04:56:20.858Z,12.30
2023-04-26T04:57:20.857Z,12.70
2023-04-26T04:58:20.850Z,12.40
2023-04-26T04:59:20.850Z,12.50
2023-04-26T05:00:20.838Z,12.40
2023-04-26T05:01:20.838Z,12.60
2023-04-26T05:02:21.012Z,12.40
2023-04-26T05:03:21.050Z,12.60
2023-04-26T05:04:21.004Z,12.70
2023-04-26T05:05:20.832Z,12.40
2023-04-26T05:06:20.851Z,12.90
2023-04-26T05:07:20.818Z,12.60
2023-04-26T05:08:20.824Z,12.50
2023-04-26T05:09:20.818Z,12.50
2023-04-26T05:10:20.816Z,12.60
2023-04-26T05:11:20.806Z,12.50
2023-04-26T05:12:20.807Z,12.60
2023-04-26T05:13:20.813Z,12.60
2023-04-26T05:14:20.794Z,12.30
2023-04-26T05:15:20.797Z,12.10
2023-04-26T05:16:20.834Z,12.60
2023-04-26T05:17:20.790Z,12.10
2023-04-26T05:18:20.787Z,12.50
2023-04-26T05:19:20.791Z,12.80
2023-04-26T05:20:20.818Z,12.60
2023-04-26T05:21:20.784Z,12.60
2023-04-26T05:22:20.788Z,12.40
2023-04-26T05:23:20.774Z,13.00
2023-04-26T05:24:20.760Z,13.00
2023-04-26T05:25:22.459Z,12.50
2023-04-26T05:26:20.759Z,13.00
2023-04-26T05:27:20.760Z,13.10
2023-04-26T05:28:20.763Z,12.70
2023-04-26T05:29:20.752Z,13.00
2023-04-26T05:30:20.745Z,12.70
2023-04-26T05:31:20.769Z,12.70
2023-04-26T05:32:20.732Z,12.70
2023-04-26T05:33:20.797Z,13.10
2023-04-26T05:34:20.729Z,12.30
2023-04-26T05:35:20.727Z,11.70
2023-04-26T05:36:20.726Z,12.40
2023-04-26T05:37:20.739Z,11.80
2023-04-26T05:38:20.785Z,12.40
2023-04-26T05:39:20.705Z,12.60
2023-04-26T05:40:20.725Z,12.70
2023-04-26T05:41:20.705Z,11.70
2023-04-26T05:42:20.708Z,12.20
2023-04-26T05:43:20.701Z,12.40
2023-04-26T05:44:20.701Z,12.30
2023-04-26T05:45:20.700Z,12.40
2023-04-26T05:46:20.794Z,12.90
2023-04-26T05:47:20.692Z,12.40
2023-04-26T05:48:20.693Z,12.60
2023-04-26T05:49:20.680Z,12.60
2023-04-26T05:50:20.677Z,12.30
2023-04-26T05:51:20.671Z,12.40
2023-04-26T05:52:20.666Z,12.50
2023-04-26T05:53:20.664Z,12.40
2023-04-26T05:54:20.734Z,12.40
2023-04-26T05:55:20.658Z,12.10
2023-04-26T05:56:20.656Z,12.10
2023-04-26T05:57:20.684Z,12.80
2023-04-26T05:58:20.647Z,12.20
2023-04-26T05:59:20.639Z,12.10
2023-04-26T06:00:20.642Z,12.20
2023-04-26T06:01:20.646Z,12.20
2023-04-26T06:02:20.709Z,12.40
2023-04-26T06:03:20.795Z,12.70
2023-04-26T06:04:20.873Z,12.90
2023-04-26T06:05:20.842Z,13.00
2023-04-26T06:06:20.620Z,12.70
2023-04-26T06:07:20.635Z,12.60
2023-04-26T06:08:20.616Z,12.70
2023-04-26T06:09:20.609Z,12.60
2023-04-26T06:10:20.637Z,12.50
2023-04-26T06:11:20.600Z,12.80
2023-04-26T06:12:20.613Z,13.00
2023-04-26T06:13:20.598Z,13.10
2023-04-26T06:14:29.961Z,13.10
2023-04-26T06:15:20.597Z,13.30
2023-04-26T06:16:20.623Z,12.90
2023-04-26T06:17:20.683Z,12.90
2023-04-26T06:18:20.581Z,12.90
2023-04-26T06:19:20.579Z,12.80
2023-04-26T06:20:20.581Z,13.30
2023-04-26T06:21:20.573Z,12.80
2023-04-26T06:22:20.571Z,13.00
2023-04-26T06:23:20.578Z,12.80
2023-04-26T06:24:20.570Z,12.50
2023-04-26T06:25:20.612Z,12.70
2023-04-26T06:26:20.594Z,12.60
2023-04-26T06:27:20.562Z,13.40
2023-04-26T06:28:20.553Z,12.40
2023-04-26T06:29:20.557Z,12.70
2023-04-26T06:30:20.550Z,12.60
2023-04-26T06:31:20.578Z,12.80
2023-04-26T06:32:20.544Z,13.10
2023-04-26T06:33:20.542Z,13.20
2023-04-26T06:34:20.541Z,12.80
2023-04-26T06:35:20.540Z,12.90
2023-04-26T06:36:20.537Z,12.50
2023-04-26T06:37:20.535Z,12.30
2023-04-26T06:38:20.539Z,12.50
2023-04-26T06:39:20.527Z,13.00
2023-04-26T06:40:20.520Z,12.90
2023-04-26T06:41:20.521Z,12.80
2023-04-26T06:42:20.539Z,13.30
2023-04-26T06:43:20.514Z,13.00
2023-04-26T06:44:20.520Z,13.10
2023-04-26T06:45:20.516Z,12.60
2023-04-26T06:46:20.560Z,13.30
2023-04-26T06:47:20.510Z,13.00
2023-04-26T06:48:20.504Z,12.70
2023-04-26T06:49:20.499Z,13.00
2023-04-26T06:50:20.500Z,13.10
2023-04-26T06:51:20.496Z,12.90
2023-04-26T06:52:21.614Z,13.00
2023-04-26T06:53:22.947Z,13.10
2023-04-26T06:54:20.494Z,13.10
2023-04-26T06:55:20.484Z,13.30
2023-04-26T06:56:20.500Z,13.40
2023-04-26T06:57:20.512Z,13.20
2023-04-26T06:58:20.503Z,13.80
2023-04-26T06:59:20.477Z,13.00
2023-04-26T07:00:20.475Z,13.20
2023-04-26T07:01:20.485Z,13.00
2023-04-26T07:02:20.541Z,13.30
2023-04-26T07:03:20.648Z,13.30
2023-04-26T07:04:20.852Z,13.10
2023-04-26T07:05:20.569Z,13.00
2023-04-26T07:06:20.466Z,13.00
2023-04-26T07:07:20.462Z,13.70
2023-04-26T07:08:20.463Z,13.30
2023-04-26T07:09:20.462Z,12.90
2023-04-26T07:10:20.460Z,13.00
2023-04-26T07:11:20.455Z,13.00
2023-04-26T07:12:20.449Z,12.90
2023-04-26T07:13:20.453Z,12.90
2023-04-26T07:14:20.650Z,13.60
2023-04-26T07:15:20.449Z,13.20
2023-04-26T07:16:20.510Z,12.80
2023-04-26T07:17:20.461Z,13.00
2023-04-26T07:18:20.531Z,13.00
2023-04-26T07:19:20.447Z,12.50
2023-04-26T07:20:20.443Z,13.00
2023-04-26T07:21:20.452Z,13.50
2023-04-26T07:22:20.438Z,13.20
2023-04-26T07:23:20.437Z,12.80
2023-04-26T07:24:20.449Z,12.80
2023-04-26T07:25:20.433Z,13.10
2023-04-26T07:26:20.442Z,13.20
2023-04-26T07:27:20.436Z,12.60
2023-04-26T07:28:20.431Z,13.00
2023-04-26T07:29:20.427Z,12.80
2023-04-26T07:30:20.449Z,12.50
2023-04-26T07:31:20.438Z,12.90
2023-04-26T07:32:20.508Z,12.20
2023-04-26T07:33:20.558Z,12.30
2023-04-26T07:34:20.427Z,12.10
2023-04-26T07:35:20.431Z,12.80
2023-04-26T07:36:21.480Z,12.80
2023-04-26T07:37:20.425Z,12.40
2023-04-26T07:38:20.445Z,12.60
2023-04-26T07:39:20.419Z,12.60
2023-04-26T07:40:20.424Z,12.80
2023-04-26T07:41:20.430Z,12.90
2023-04-26T07:42:20.429Z,12.70
2023-04-26T07:43:20.426Z,12.60
2023-04-26T07:44:20.429Z,12.80
2023-04-26T07:45:20.419Z,12.70
2023-04-26T07:46:20.511Z,12.70
2023-04-26T07:47:20.419Z,12.80
2023-04-26T07:48:20.428Z,12.20
2023-04-26T07:49:20.424Z,12.20
2023-04-26T07:50:20.427Z,12.30
2023-04-26T07:51:20.417Z,12.60
2023-04-26T07:52:20.438Z,12.50
2023-04-26T07:53:20.423Z,13.00
2023-04-26T07:54:20.441Z,12.50
2023-04-26T07:55:20.430Z,12.60
2023-04-26T07:56:20.424Z,12.30
2023-04-26T07:57:20.431Z,12.40
2023-04-26T07:58:20.454Z,12.60
2023-04-26T07:59:20.424Z,12.60
2023-04-26T08:00:20.437Z,12.70
2023-04-26T08:01:20.424Z,12.90
2023-04-26T08:02:27.111Z,12.80
2023-04-26T08:03:20.602Z,13.30
2023-04-26T08:04:20.527Z,12.80
2023-04-26T08:05:20.671Z,13.30
2023-04-26T08:06:20.593Z,13.30
2023-04-26T08:07:20.433Z,12.90
2023-04-26T08:08:20.444Z,12.80
2023-04-26T08:09:20.432Z,13.40
2023-04-26T08:10:20.435Z,13.60
2023-04-26T08:11:20.437Z,13.10
2023-04-26T08:12:20.435Z,13.40
2023-04-26T08:13:20.444Z,13.30
2023-04-26T08:14:20.470Z,12.80
2023-04-26T08:15:20.439Z,12.90
2023-04-26T08:16:20.473Z,13.40
2023-04-26T08:17:20.429Z,12.90
2023-04-26T08:18:20.820Z,13.10
2023-04-26T08:19:20.431Z,13.10
2023-04-26T08:20:20.458Z,12.80
2023-04-26T08:21:20.436Z,12.80
2023-04-26T08:22:20.452Z,12.50
2023-04-26T08:23:20.441Z,12.20
2023-04-26T08:24:20.460Z,12.50
2023-04-26T08:25:20.437Z,13.00
2023-04-26T08:26:20.448Z,12.60
2023-04-26T08:27:20.444Z,12.40
2023-04-26T08:28:20.442Z,12.70
2023-04-26T08:29:20.444Z,12.70
2023-04-26T08:30:20.446Z,12.60
2023-04-26T08:31:20.503Z,12.60
2023-04-26T08:32:20.478Z,12.40
2023-04-26T08:33:20.444Z,12.60
2023-04-26T08:34:20.469Z,13.00
2023-04-26T08:35:20.449Z,12.80
2023-04-26T08:36:20.452Z,12.70
2023-04-26T08:37:20.444Z,12.90
2023-04-26T08:38:20.612Z,12.70
2023-04-26T08:39:20.446Z,12.80
2023-04-26T08:40:20.452Z,12.50
2023-04-26T08:41:20.448Z,12.80
2023-04-26T08:42:20.451Z,12.60
2023-04-26T08:43:20.452Z,12.90
2023-04-26T08:44:20.454Z,12.50
2023-04-26T08:45:20.449Z,12.50
2023-04-26T08:46:20.486Z,12.90
2023-04-26T08:47:20.450Z,13.00
2023-04-26T08:48:20.456Z,13.70
2023-04-26T08:49:20.453Z,13.30
2023-04-26T08:50:20.481Z,13.10
2023-04-26T08:51:20.458Z,13.30
2023-04-26T08:52:20.468Z,13.30
2023-04-26T08:53:20.461Z,13.20
2023-04-26T08:54:20.458Z,13.60
2023-04-26T08:55:20.506Z,13.30
2023-04-26T08:56:20.462Z,13.50
2023-04-26T08:57:20.457Z,13.40
2023-04-26T08:58:20.466Z,13.40
2023-04-26T08:59:20.463Z,12.90
2023-04-26T09:00:20.461Z,13.20
2023-04-26T09:01:20.505Z,13.00
2023-04-26T09:02:20.550Z,13.30
2023-04-26T09:03:20.551Z,13.10
2023-04-26T09:04:20.756Z,13.30
2023-04-26T09:05:20.461Z,13.20
2023-04-26T09:06:20.621Z,13.30
2023-04-26T09:07:20.466Z,12.90
2023-04-26T09:08:20.473Z,12.90
2023-04-26T09:09:20.469Z,12.80
2023-04-26T09:10:20.469Z,13.50
2023-04-26T09:11:20.469Z,13.30
2023-04-26T09:12:20.477Z,13.30
2023-04-26T09:13:20.469Z,13.80
2023-04-26T09:14:20.473Z,13.30
2023-04-26T09:15:20.467Z,13.80
2023-04-26T09:16:20.555Z,13.80
2023-04-26T09:17:20.514Z,13.20
2023-04-26T09:18:20.510Z,13.40
2023-04-26T09:19:20.485Z,13.10
2023-04-26T09:20:20.542Z,13.20
2023-04-26T09:21:20.489Z,13.30
2023-04-26T09:22:20.555Z,13.30
2023-04-26T09:23:20.483Z,13.40
2023-04-26T09:24:20.484Z,12.90
2023-04-26T09:25:20.852Z,13.10
2023-04-26T09:26:20.585Z,13.10
2023-04-26T09:27:20.480Z,13.20
2023-04-26T09:28:20.495Z,13.40
2023-04-26T09:29:20.496Z,13.40
2023-04-26T09:30:20.515Z,13.50
2023-04-26T09:31:20.536Z,13.70
2023-04-26T09:32:20.504Z,13.70
2023-04-26T09:33:20.571Z,13.80
2023-04-26T09:34:20.491Z,13.50
2023-04-26T09:35:20.491Z,13.80
2023-04-26T09:36:20.492Z,13.70
2023-04-26T09:37:20.494Z,13.40
2023-04-26T09:38:20.608Z,13.30
2023-04-26T09:39:20.490Z,13.20
2023-04-26T09:40:20.495Z,13.50
2023-04-26T09:41:20.496Z,13.40
2023-04-26T09:42:20.511Z,12.50
2023-04-26T09:43:20.496Z,12.90
2023-04-26T09:44:20.512Z,13.10
2023-04-26T09:45:20.499Z,13.60
2023-04-26T09:46:20.529Z,13.30
2023-04-26T09:47:20.497Z,13.90
2023-04-26T09:48:20.520Z,14.30
2023-04-26T09:49:20.501Z,14.40
2023-04-26T09:50:20.507Z,14.40
2023-04-26T09:51:20.501Z,14.90
2023-04-26T09:52:20.535Z,14.30
2023-04-26T09:53:20.512Z,14.30
2023-04-26T09:54:20.722Z,14.20
2023-04-26T09:55:34.014Z,13.90
2023-04-26T09:56:20.510Z,12.90
2023-04-26T09:57:20.514Z,13.10
2023-04-26T09:58:20.512Z,12.70
2023-04-26T09:59:20.539Z,13.00
2023-04-26T10:00:20.518Z,13.20
2023-04-26T10:01:20.592Z,12.80
2023-04-26T10:02:20.586Z,13.70
2023-04-26T10:03:20.696Z,13.20
2023-04-26T10:04:20.663Z,13.40
2023-04-26T10:05:20.534Z,13.10
2023-04-26T10:06:20.526Z,13.50
2023-04-26T10:07:20.551Z,13.20
2023-04-26T10:08:20.527Z,12.90
2023-04-26T10:09:20.540Z,12.70
2023-04-26T10:10:20.552Z,13.60
2023-04-26T10:11:20.539Z,13.10
2023-04-26T10:12:20.537Z,13.70
2023-04-26T10:13:20.537Z,13.20
2023-04-26T10:14:20.537Z,13.10
2023-04-26T10:15:20.545Z,12.70
2023-04-26T10:16:20.573Z,12.70
2023-04-26T10:17:20.557Z,13.30
2023-04-26T10:18:20.552Z,13.10
2023-04-26T10:19:20.548Z,13.50
2023-04-26T10:20:20.587Z,13.20
2023-04-26T10:21:20.558Z,12.80
2023-04-26T10:22:20.552Z,12.40
2023-04-26T10:23:20.564Z,12.80
2023-04-26T10:24:20.565Z,12.70
2023-04-26T10:25:20.556Z,12.90
2023-04-26T10:26:20.590Z,12.40
2023-04-26T10:27:20.558Z,12.90
2023-04-26T10:28:20.563Z,13.40
2023-04-26T10:29:20.576Z,13.40
2023-04-26T10:30:20.566Z,13.10
2023-04-26T10:31:20.572Z,14.00
2023-04-26T10:32:20.558Z,13.40
2023-04-26T10:33:20.617Z,13.70
2023-04-26T10:34:20.559Z,13.30
2023-04-26T10:35:20.563Z,13.50
2023-04-26T10:36:20.568Z,13.70
2023-04-26T10:37:20.570Z,14.00
2023-04-26T10:38:20.566Z,13.60
2023-04-26T10:39:20.657Z,13.60
2023-04-26T10:40:20.565Z,13.80
2023-04-26T10:41:20.566Z,14.10
2023-04-26T10:42:21.942Z,14.30
2023-04-26T10:43:20.564Z,14.30
2023-04-26T10:44:20.572Z,14.10
2023-04-26T10:45:20.575Z,13.90
2023-04-26T10:46:20.602Z,13.50
2023-04-26T10:47:20.604Z,13.90
2023-04-26T10:48:20.573Z,14.30
2023-04-26T10:49:20.565Z,14.10
2023-04-26T10:50:20.566Z,14.20
2023-04-26T10:51:20.566Z,14.30
2023-04-26T10:52:20.590Z,14.30
2023-04-26T10:53:20.570Z,14.50
2023-04-26T10:54:20.571Z,13.90
2023-04-26T10:55:20.576Z,13.00
2023-04-26T10:56:20.565Z,13.00
2023-04-26T10:57:20.581Z,13.20
2023-04-26T10:58:20.587Z,14.40
2023-04-26T10:59:36.350Z,14.20
2023-04-26T11:00:20.568Z,12.70
2023-04-26T11:01:20.664Z,13.50
2023-04-26T11:02:20.574Z,13.40
2023-04-26T11:03:20.715Z,13.10
2023-04-26T11:04:20.669Z,13.10
2023-04-26T11:05:20.577Z,13.40
2023-04-26T11:06:20.571Z,13.30
2023-04-26T11:07:20.579Z,13.10
2023-04-26T11:08:20.591Z,13.20
2023-04-26T11:09:20.575Z,13.40
2023-04-26T11:10:20.569Z,13.20
2023-04-26T11:11:20.566Z,13.40
2023-04-26T11:12:20.575Z,13.40
2023-04-26T11:13:20.575Z,13.30
2023-04-26T11:14:20.604Z,13.10
2023-04-26T11:15:20.573Z,13.30
2023-04-26T11:16:20.711Z,13.20
2023-04-26T11:17:20.590Z,13.20
2023-04-26T11:18:20.570Z,13.20
2023-04-26T11:19:20.576Z,13.50
2023-04-26T11:20:20.579Z,13.50
2023-04-26T11:21:20.581Z,13.40
2023-04-26T11:22:20.577Z,13.80
2023-04-26T11:23:20.583Z,13.80
2023-04-26T11:24:20.585Z,13.40
2023-04-26T11:25:20.577Z,13.30
2023-04-26T11:26:20.576Z,13.60
2023-04-26T11:27:20.583Z,13.50
2023-04-26T11:28:20.593Z,13.30
2023-04-26T11:29:20.574Z,13.00
2023-04-26T11:30:20.614Z,13.10
2023-04-26T11:31:20.609Z,13.10
2023-04-26T11:32:20.583Z,13.00
2023-04-26T11:33:20.599Z,12.60
2023-04-26T11:34:20.578Z,13.20
2023-04-26T11:35:20.585Z,12.90
2023-04-26T11:36:20.583Z,12.90
2023-04-26T11:37:20.581Z,12.90
2023-04-26T11:38:20.576Z,13.10
2023-04-26T11:39:20.595Z,12.80
2023-04-26T11:40:20.584Z,13.10
2023-04-26T11:41:20.584Z,13.50
2023-04-26T11:42:20.587Z,13.00
2023-04-26T11:43:20.637Z,12.80
2023-04-26T11:44:20.597Z,12.90
2023-04-26T11:45:20.588Z,13.00
2023-04-26T11:46:20.679Z,13.10
2023-04-26T11:47:20.590Z,13.00
2023-04-26T11:48:20.664Z,13.20
2023-04-26T11:49:20.587Z,12.90
2023-04-26T11:50:20.587Z,13.40
2023-04-26T11:51:20.597Z,13.30
2023-04-26T11:52:20.590Z,13.30
2023-04-26T11:53:20.611Z,13.20
2023-04-26T11:54:20.626Z,13.20
2023-04-26T11:55:20.597Z,12.90
2023-04-26T11:56:20.645Z,13.30
2023-04-26T11:57:20.599Z,13.10
2023-04-26T11:58:20.593Z,12.90
2023-04-26T11:59:20.596Z,12.80
2023-04-26T12:00:20.625Z,13.20
2023-04-26T12:01:20.602Z,13.30
2023-04-26T12:02:20.721Z,13.20
2023-04-26T12:03:20.835Z,13.00
2023-04-26T12:04:20.778Z,12.80
2023-04-26T12:05:20.636Z,12.70
2023-04-26T12:06:20.646Z,12.90
2023-04-26T12:07:20.608Z,12.70
2023-04-26T12:08:20.602Z,13.10
2023-04-26T12:09:20.606Z,13.00
2023-04-26T12:10:20.621Z,12.90
2023-04-26T12:11:20.614Z,12.80
2023-04-26T12:12:20.609Z,13.20
2023-04-26T12:13:20.614Z,12.80
2023-04-26T12:14:20.613Z,12.90
2023-04-26T12:15:20.612Z,12.80
2023-04-26T12:16:26.321Z,12.80
2023-04-26T12:17:20.760Z,12.60
2023-04-26T12:18:20.696Z,12.80
2023-04-26T12:19:20.621Z,12.50
2023-04-26T12:20:20.614Z,12.70
2023-04-26T12:21:20.623Z,12.70
2023-04-26T12:22:20.633Z,13.20
2023-04-26T12:23:20.632Z,13.20
2023-04-26T12:24:20.629Z,13.40
2023-04-26T12:25:20.629Z,12.50
2023-04-26T12:26:20.700Z,12.80
2023-04-26T12:27:20.638Z,13.30
2023-04-26T12:28:20.638Z,13.10
2023-04-26T12:29:20.633Z,13.30
2023-04-26T12:30:20.630Z,13.40
2023-04-26T12:31:20.663Z,13.50
2023-04-26T12:32:22.535Z,12.60
2023-04-26T12:34:38.286Z,13.20
2023-04-26T12:35:38.259Z,13.40
2023-04-26T12:36:38.266Z,13.30
2023-04-26T12:37:38.269Z,13.10
2023-04-26T12:38:38.284Z,13.10
2023-04-26T12:39:38.274Z,14.70
2023-04-26T12:40:38.278Z,14.10
2023-04-26T12:41:38.281Z,13.40
2023-04-26T12:42:38.302Z,12.50
2023-04-26T12:43:38.299Z,13.00
2023-04-26T12:44:38.317Z,12.70
2023-04-26T12:45:38.318Z,13.20
2023-04-26T12:46:38.532Z,13.30
2023-04-26T12:47:38.354Z,13.60
2023-04-26T12:48:38.323Z,13.30
2023-04-26T12:49:38.330Z,13.00
2023-04-26T12:50:38.473Z,12.70
2023-04-26T12:51:38.333Z,12.70
2023-04-26T12:52:38.348Z,12.60
2023-04-26T12:53:38.348Z,12.70